sensor_id;sensor_type;location;lat;lon;timestamp;pressure;altitude;pressure_sealevel;temperature;humidity
83496;BME280;73431;40.794;43.836;2024-03-08T00:00:15;84125.69;;;2.61;57.02
83496;BME280;73431;40.794;43.836;2024-03-08T00:02:47;84119.69;;;2.64;56.79
83496;BME280;73431;40.794;43.836;2024-03-08T00:05:18;84126.41;;;2.62;56.95
83496;BME280;73431;40.794;43.836;2024-03-08T00:07:46;84108.84;;;2.53;57.25
83496;BME280;73431;40.794;43.836;2024-03-08T00:10:14;84119.88;;;2.57;57.06
83496;BME280;73431;40.794;43.836;2024-03-08T00:12:45;84121.13;;;2.65;57.42
83496;BME280;73431;40.794;43.836;2024-03-08T00:15:15;84126.66;;;2.67;57.94
83496;BME280;73431;40.794;43.836;2024-03-08T00:17:45;84124.25;;;2.73;57.51
83496;BME280;73431;40.794;43.836;2024-03-08T00:20:15;84123.22;;;2.71;57.39
83496;BME280;73431;40.794;43.836;2024-03-08T00:22:46;84120.91;;;2.60;57.68
83496;BME280;73431;40.794;43.836;2024-03-08T00:25:14;84122.13;;;2.55;58.24
83496;BME280;73431;40.794;43.836;2024-03-08T00:27:43;84125.38;;;2.59;58.12
83496;BME280;73431;40.794;43.836;2024-03-08T00:30:11;84119.13;;;2.57;58.37
83496;BME280;73431;40.794;43.836;2024-03-08T00:32:42;84120.59;;;2.58;57.02
83496;BME280;73431;40.794;43.836;2024-03-08T00:35:10;84121.19;;;2.49;57.50
83496;BME280;73431;40.794;43.836;2024-03-08T00:37:40;84115.59;;;2.51;57.29
83496;BME280;73431;40.794;43.836;2024-03-08T00:40:09;84122.44;;;2.45;56.93
83496;BME280;73431;40.794;43.836;2024-03-08T00:42:37;84122.31;;;2.36;57.36
83496;BME280;73431;40.794;43.836;2024-03-08T00:45:06;84120.63;;;2.29;57.30
83496;BME280;73431;40.794;43.836;2024-03-08T00:47:34;84120.81;;;2.22;57.74
83496;BME280;73431;40.794;43.836;2024-03-08T00:50:02;84115.63;;;2.22;57.95
83496;BME280;73431;40.794;43.836;2024-03-08T00:52:32;84116.44;;;2.19;58.02
83496;BME280;73431;40.794;43.836;2024-03-08T00:55:02;84114.25;;;2.18;58.09
83496;BME280;73431;40.794;43.836;2024-03-08T00:57:30;84118.22;;;2.22;58.72
83496;BME280;73431;40.794;43.836;2024-03-08T00:59:58;84124.16;;;2.23;58.42
83496;BME280;73431;40.794;43.836;2024-03-08T01:02:26;84120.09;;;2.22;58.47
83496;BME280;73431;40.794;43.836;2024-03-08T01:04:54;84123.97;;;2.30;58.07
83496;BME280;73431;40.794;43.836;2024-03-08T01:07:22;84120.66;;;2.42;58.49
83496;BME280;73431;40.794;43.836;2024-03-08T01:09:50;84122.75;;;2.47;58.00
83496;BME280;73431;40.794;43.836;2024-03-08T01:12:18;84105.69;;;2.46;58.18
83496;BME280;73431;40.794;43.836;2024-03-08T01:14:46;84127.75;;;2.54;57.83
83496;BME280;73431;40.794;43.836;2024-03-08T01:17:13;84125.16;;;2.54;57.90
83496;BME280;73431;40.794;43.836;2024-03-08T01:19:41;84124.84;;;2.52;58.05
83496;BME280;73431;40.794;43.836;2024-03-08T01:22:09;84132.84;;;2.45;57.82
83496;BME280;73431;40.794;43.836;2024-03-08T01:24:36;84134.16;;;2.37;58.59
83496;BME280;73431;40.794;43.836;2024-03-08T01:27:04;84136.00;;;2.36;58.29
83496;BME280;73431;40.794;43.836;2024-03-08T01:29:32;84133.19;;;2.31;58.27
83496;BME280;73431;40.794;43.836;2024-03-08T01:32:00;84121.22;;;2.21;58.24
83496;BME280;73431;40.794;43.836;2024-03-08T01:34:30;84129.56;;;2.28;58.46
83496;BME280;73431;40.794;43.836;2024-03-08T01:36:58;84134.06;;;2.11;58.33
83496;BME280;73431;40.794;43.836;2024-03-08T01:39:26;84136.94;;;2.01;58.85
83496;BME280;73431;40.794;43.836;2024-03-08T01:41:55;84134.28;;;1.88;58.86
83496;BME280;73431;40.794;43.836;2024-03-08T01:44:22;84147.09;;;1.79;59.41
83496;BME280;73431;40.794;43.836;2024-03-08T01:46:52;84146.38;;;1.79;59.60
83496;BME280;73431;40.794;43.836;2024-03-08T01:49:21;84144.56;;;1.92;59.57
83496;BME280;73431;40.794;43.836;2024-03-08T01:51:49;84150.97;;;2.03;58.83
83496;BME280;73431;40.794;43.836;2024-03-08T01:54:18;84152.31;;;2.08;58.75
83496;BME280;73431;40.794;43.836;2024-03-08T01:56:48;84146.81;;;2.06;58.71
83496;BME280;73431;40.794;43.836;2024-03-08T01:59:16;84149.28;;;1.97;58.29
83496;BME280;73431;40.794;43.836;2024-03-08T02:01:44;84155.50;;;1.99;57.86
83496;BME280;73431;40.794;43.836;2024-03-08T02:04:13;84155.19;;;1.97;58.32
83496;BME280;73431;40.794;43.836;2024-03-08T02:06:40;84160.13;;;1.92;57.93
83496;BME280;73431;40.794;43.836;2024-03-08T02:09:08;84166.56;;;1.87;58.09
83496;BME280;73431;40.794;43.836;2024-03-08T02:11:36;84162.69;;;1.79;58.44
83496;BME280;73431;40.794;43.836;2024-03-08T02:14:05;84166.91;;;1.73;57.87
83496;BME280;73431;40.794;43.836;2024-03-08T02:16:34;84163.84;;;1.62;58.61
83496;BME280;73431;40.794;43.836;2024-03-08T02:19:01;84165.78;;;1.58;58.92
83496;BME280;73431;40.794;43.836;2024-03-08T02:21:29;84169.94;;;1.39;59.16
83496;BME280;73431;40.794;43.836;2024-03-08T02:23:58;84162.31;;;1.32;59.42
83496;BME280;73431;40.794;43.836;2024-03-08T02:26:27;84165.84;;;1.22;59.00
83496;BME280;73431;40.794;43.836;2024-03-08T02:28:55;84174.38;;;1.23;60.40
83496;BME280;73431;40.794;43.836;2024-03-08T02:31:23;84172.00;;;1.28;59.61
83496;BME280;73431;40.794;43.836;2024-03-08T02:33:51;84169.44;;;1.28;59.67
83496;BME280;73431;40.794;43.836;2024-03-08T02:36:19;84177.53;;;1.30;59.15
83496;BME280;73431;40.794;43.836;2024-03-08T02:38:47;84188.22;;;1.32;59.01
83496;BME280;73431;40.794;43.836;2024-03-08T02:41:14;84179.69;;;1.16;58.40
83496;BME280;73431;40.794;43.836;2024-03-08T02:43:42;84178.69;;;0.93;58.86
83496;BME280;73431;40.794;43.836;2024-03-08T02:46:11;84180.63;;;0.89;59.45
83496;BME280;73431;40.794;43.836;2024-03-08T02:48:39;84187.44;;;0.99;59.31
83496;BME280;73431;40.794;43.836;2024-03-08T02:51:08;84189.25;;;1.02;59.68
83496;BME280;73431;40.794;43.836;2024-03-08T02:53:36;84192.59;;;0.83;59.26
83496;BME280;73431;40.794;43.836;2024-03-08T02:56:05;84196.28;;;0.66;59.79
83496;BME280;73431;40.794;43.836;2024-03-08T02:58:36;84193.09;;;0.59;59.91
83496;BME280;73431;40.794;43.836;2024-03-08T03:01:04;84206.13;;;0.55;60.90
83496;BME280;73431;40.794;43.836;2024-03-08T03:03:32;84211.09;;;0.46;60.77
83496;BME280;73431;40.794;43.836;2024-03-08T03:05:59;84211.66;;;0.37;61.04
83496;BME280;73431;40.794;43.836;2024-03-08T03:08:28;84212.56;;;0.27;61.32
83496;BME280;73431;40.794;43.836;2024-03-08T03:10:56;84209.09;;;0.14;61.69
83496;BME280;73431;40.794;43.836;2024-03-08T03:13:24;84219.63;;;0.04;61.02
83496;BME280;73431;40.794;43.836;2024-03-08T03:15:52;84212.28;;;0.02;61.25
83496;BME280;73431;40.794;43.836;2024-03-08T03:18:19;84220.03;;;0.02;60.71
83496;BME280;73431;40.794;43.836;2024-03-08T03:20:51;84214.94;;;-0.02;61.62
83496;BME280;73431;40.794;43.836;2024-03-08T03:23:19;84221.91;;;0.02;61.42
83496;BME280;73431;40.794;43.836;2024-03-08T03:25:48;84221.50;;;0.03;61.67
83496;BME280;73431;40.794;43.836;2024-03-08T03:28:16;84220.00;;;0.06;60.81
83496;BME280;73431;40.794;43.836;2024-03-08T03:30:45;84214.03;;;-0.15;61.55
83496;BME280;73431;40.794;43.836;2024-03-08T03:33:14;84217.84;;;0.00;61.26
83496;BME280;73431;40.794;43.836;2024-03-08T03:35:44;84221.44;;;0.07;61.35
83496;BME280;73431;40.794;43.836;2024-03-08T03:38:13;84225.31;;;0.18;61.02
83496;BME280;73431;40.794;43.836;2024-03-08T03:40:42;84230.41;;;0.22;60.86
83496;BME280;73431;40.794;43.836;2024-03-08T03:43:12;84225.88;;;0.26;60.59
83496;BME280;73431;40.794;43.836;2024-03-08T03:45:40;84226.97;;;0.28;60.62
83496;BME280;73431;40.794;43.836;2024-03-08T03:48:09;84224.44;;;0.25;61.01
83496;BME280;73431;40.794;43.836;2024-03-08T03:50:38;84227.69;;;0.29;60.77
83496;BME280;73431;40.794;43.836;2024-03-08T03:53:07;84228.34;;;0.33;60.90
83496;BME280;73431;40.794;43.836;2024-03-08T03:55:37;84226.13;;;0.35;61.56
83496;BME280;73431;40.794;43.836;2024-03-08T03:58:08;84237.13;;;0.39;60.96
83496;BME280;73431;40.794;43.836;2024-03-08T04:00:39;84226.19;;;0.31;60.83
83496;BME280;73431;40.794;43.836;2024-03-08T04:03:06;84226.31;;;0.44;61.86
83496;BME280;73431;40.794;43.836;2024-03-08T04:05:36;84223.91;;;0.53;61.50
83496;BME280;73431;40.794;43.836;2024-03-08T04:08:04;84222.06;;;0.53;61.71
83496;BME280;73431;40.794;43.836;2024-03-08T04:10:31;84233.34;;;0.63;60.84
83496;BME280;73431;40.794;43.836;2024-03-08T04:12:59;84223.97;;;0.89;60.90
83496;BME280;73431;40.794;43.836;2024-03-08T04:15:27;84231.53;;;1.16;60.52
83496;BME280;73431;40.794;43.836;2024-03-08T04:17:55;84228.81;;;1.39;59.83
83496;BME280;73431;40.794;43.836;2024-03-08T04:20:25;84232.97;;;1.52;59.25
83496;BME280;73431;40.794;43.836;2024-03-08T04:22:52;84232.09;;;1.59;58.49
83496;BME280;73431;40.794;43.836;2024-03-08T04:25:21;84230.94;;;1.60;58.40
83496;BME280;73431;40.794;43.836;2024-03-08T04:27:49;84237.50;;;1.48;58.08
83496;BME280;73431;40.794;43.836;2024-03-08T04:30:17;84239.25;;;1.35;58.78
83496;BME280;73431;40.794;43.836;2024-03-08T04:32:45;84242.53;;;1.39;58.77
83496;BME280;73431;40.794;43.836;2024-03-08T04:35:13;84245.78;;;1.43;58.30
83496;BME280;73431;40.794;43.836;2024-03-08T04:37:42;84242.38;;;1.46;58.26
83496;BME280;73431;40.794;43.836;2024-03-08T04:40:10;84222.16;;;1.38;58.41
83496;BME280;73431;40.794;43.836;2024-03-08T04:42:39;84245.28;;;1.48;58.47
83496;BME280;73431;40.794;43.836;2024-03-08T04:45:09;84245.19;;;1.52;58.18
83496;BME280;73431;40.794;43.836;2024-03-08T04:47:38;84248.47;;;1.56;58.58
83496;BME280;73431;40.794;43.836;2024-03-08T04:50:07;84248.03;;;1.57;57.57
83496;BME280;73431;40.794;43.836;2024-03-08T04:52:36;84253.56;;;1.59;57.61
83496;BME280;73431;40.794;43.836;2024-03-08T04:55:04;84256.56;;;1.58;57.71
83496;BME280;73431;40.794;43.836;2024-03-08T04:57:32;84260.19;;;1.60;58.03
83496;BME280;73431;40.794;43.836;2024-03-08T05:00:02;84269.69;;;1.67;57.86
83496;BME280;73431;40.794;43.836;2024-03-08T05:02:31;84273.25;;;1.73;57.69
83496;BME280;73431;40.794;43.836;2024-03-08T05:04:59;84268.38;;;1.59;57.24
83496;BME280;73431;40.794;43.836;2024-03-08T05:07:29;84274.94;;;1.47;58.00
83496;BME280;73431;40.794;43.836;2024-03-08T05:09:57;84267.72;;;1.55;58.28
83496;BME280;73431;40.794;43.836;2024-03-08T05:12:24;84286.19;;;1.57;58.09
83496;BME280;73431;40.794;43.836;2024-03-08T05:14:53;84277.38;;;1.54;58.79
83496;BME280;73431;40.794;43.836;2024-03-08T05:17:21;84281.59;;;1.65;58.45
83496;BME280;73431;40.794;43.836;2024-03-08T05:19:51;84284.78;;;1.72;57.65
83496;BME280;73431;40.794;43.836;2024-03-08T05:22:19;84282.56;;;1.71;58.20
83496;BME280;73431;40.794;43.836;2024-03-08T05:24:46;84278.78;;;1.75;58.51
83496;BME280;73431;40.794;43.836;2024-03-08T05:27:14;84280.88;;;1.96;58.58
83496;BME280;73431;40.794;43.836;2024-03-08T05:29:42;84278.13;;;2.20;58.26
83496;BME280;73431;40.794;43.836;2024-03-08T05:32:10;84273.53;;;2.40;58.15
83496;BME280;73431;40.794;43.836;2024-03-08T05:34:39;84276.13;;;2.56;57.89
83496;BME280;73431;40.794;43.836;2024-03-08T05:37:06;84274.22;;;2.73;57.42
83496;BME280;73431;40.794;43.836;2024-03-08T05:39:34;84273.22;;;2.83;57.05
83496;BME280;73431;40.794;43.836;2024-03-08T05:42:02;84274.16;;;2.89;56.31
83496;BME280;73431;40.794;43.836;2024-03-08T05:44:30;84268.94;;;2.76;56.24
83496;BME280;73431;40.794;43.836;2024-03-08T05:46:59;84272.53;;;2.66;56.46
83496;BME280;73431;40.794;43.836;2024-03-08T05:49:26;84279.84;;;2.71;56.26
83496;BME280;73431;40.794;43.836;2024-03-08T05:51:54;84284.38;;;2.67;56.73
83496;BME280;73431;40.794;43.836;2024-03-08T05:54:22;84280.97;;;2.70;56.84
83496;BME280;73431;40.794;43.836;2024-03-08T05:56:52;84277.38;;;2.80;56.30
83496;BME280;73431;40.794;43.836;2024-03-08T05:59:20;84281.41;;;2.81;56.44
83496;BME280;73431;40.794;43.836;2024-03-08T06:01:51;84280.09;;;2.89;57.61
83496;BME280;73431;40.794;43.836;2024-03-08T06:04:18;84279.53;;;3.10;57.25
83496;BME280;73431;40.794;43.836;2024-03-08T06:06:46;84276.66;;;3.21;56.29
83496;BME280;73431;40.794;43.836;2024-03-08T06:09:18;84275.19;;;3.20;56.93
83496;BME280;73431;40.794;43.836;2024-03-08T06:11:52;84273.44;;;3.30;56.78
83496;BME280;73431;40.794;43.836;2024-03-08T06:14:21;84276.06;;;3.42;57.01
83496;BME280;73431;40.794;43.836;2024-03-08T06:16:50;84264.00;;;3.61;57.26
83496;BME280;73431;40.794;43.836;2024-03-08T06:19:18;84266.84;;;3.79;56.53
83496;BME280;73431;40.794;43.836;2024-03-08T06:21:46;84268.19;;;3.96;56.61
83496;BME280;73431;40.794;43.836;2024-03-08T06:24:14;84257.75;;;4.09;56.81
83496;BME280;73431;40.794;43.836;2024-03-08T06:26:42;84272.22;;;4.22;55.61
83496;BME280;73431;40.794;43.836;2024-03-08T06:29:10;84268.97;;;4.31;55.48
83496;BME280;73431;40.794;43.836;2024-03-08T06:31:40;84271.78;;;4.37;55.35
83496;BME280;73431;40.794;43.836;2024-03-08T06:34:08;84274.91;;;4.32;54.96
83496;BME280;73431;40.794;43.836;2024-03-08T06:36:36;84271.06;;;4.36;55.32
83496;BME280;73431;40.794;43.836;2024-03-08T06:39:05;84277.19;;;4.42;55.13
83496;BME280;73431;40.794;43.836;2024-03-08T06:41:37;84264.47;;;4.44;54.78
83496;BME280;73431;40.794;43.836;2024-03-08T06:44:06;84278.78;;;4.40;54.04
83496;BME280;73431;40.794;43.836;2024-03-08T06:46:36;84273.88;;;4.29;55.20
83496;BME280;73431;40.794;43.836;2024-03-08T06:49:03;84270.53;;;4.28;53.79
83496;BME280;73431;40.794;43.836;2024-03-08T06:51:31;84269.50;;;4.26;54.87
83496;BME280;73431;40.794;43.836;2024-03-08T06:53:59;84270.00;;;4.46;56.60
83496;BME280;73431;40.794;43.836;2024-03-08T06:56:27;84262.34;;;4.64;54.91
83496;BME280;73431;40.794;43.836;2024-03-08T06:58:55;84264.19;;;4.76;55.85
83496;BME280;73431;40.794;43.836;2024-03-08T07:01:23;84265.66;;;4.77;54.56
83496;BME280;73431;40.794;43.836;2024-03-08T07:03:51;84261.75;;;4.82;54.87
83496;BME280;73431;40.794;43.836;2024-03-08T07:06:19;84266.63;;;4.93;54.91
83496;BME280;73431;40.794;43.836;2024-03-08T07:08:47;84268.47;;;5.05;53.87
83496;BME280;73431;40.794;43.836;2024-03-08T07:11:16;84260.53;;;5.08;55.14
83496;BME280;73431;40.794;43.836;2024-03-08T07:13:46;84255.13;;;5.03;52.46
83496;BME280;73431;40.794;43.836;2024-03-08T07:16:13;84253.09;;;4.85;54.08
83496;BME280;73431;40.794;43.836;2024-03-08T07:18:41;84252.97;;;4.89;54.39
83496;BME280;73431;40.794;43.836;2024-03-08T07:21:11;84245.53;;;5.00;54.98
83496;BME280;73431;40.794;43.836;2024-03-08T07:23:39;84248.75;;;5.04;54.50
83496;BME280;73431;40.794;43.836;2024-03-08T07:26:25;84222.00;;;4.69;52.11
83496;BME280;73431;40.794;43.836;2024-03-08T07:28:53;84251.22;;;4.86;54.75
83496;BME280;73431;40.794;43.836;2024-03-08T07:31:22;84242.03;;;4.94;55.31
83496;BME280;73431;40.794;43.836;2024-03-08T07:33:53;84245.91;;;5.11;55.00
83496;BME280;73431;40.794;43.836;2024-03-08T07:36:20;84243.09;;;5.27;54.21
83496;BME280;73431;40.794;43.836;2024-03-08T07:38:49;84236.66;;;5.41;54.76
83496;BME280;73431;40.794;43.836;2024-03-08T07:41:17;84238.59;;;5.49;53.15
83496;BME280;73431;40.794;43.836;2024-03-08T07:43:45;84234.59;;;5.57;54.12
83496;BME280;73431;40.794;43.836;2024-03-08T07:46:13;84230.56;;;5.65;53.55
83496;BME280;73431;40.794;43.836;2024-03-08T07:48:40;84242.94;;;5.74;52.58
83496;BME280;73431;40.794;43.836;2024-03-08T07:51:10;84235.97;;;5.71;53.57
83496;BME280;73431;40.794;43.836;2024-03-08T07:53:39;84239.44;;;5.68;52.31
83496;BME280;73431;40.794;43.836;2024-03-08T07:56:08;84226.69;;;5.70;53.01
83496;BME280;73431;40.794;43.836;2024-03-08T07:58:40;84230.13;;;5.89;52.75
83496;BME280;73431;40.794;43.836;2024-03-08T08:01:08;84237.81;;;5.92;53.54
83496;BME280;73431;40.794;43.836;2024-03-08T08:03:36;84244.50;;;5.93;52.46
83496;BME280;73431;40.794;43.836;2024-03-08T08:06:05;84236.56;;;5.75;50.67
83496;BME280;73431;40.794;43.836;2024-03-08T08:08:33;84240.34;;;5.52;52.97
83496;BME280;73431;40.794;43.836;2024-03-08T08:11:00;84237.97;;;5.67;53.00
83496;BME280;73431;40.794;43.836;2024-03-08T08:13:30;84240.06;;;5.81;52.22
83496;BME280;73431;40.794;43.836;2024-03-08T08:15:59;84240.88;;;5.69;48.25
83496;BME280;73431;40.794;43.836;2024-03-08T08:18:27;84241.31;;;5.46;48.95
83496;BME280;73431;40.794;43.836;2024-03-08T08:20:56;84236.25;;;5.42;52.42
83496;BME280;73431;40.794;43.836;2024-03-08T08:23:24;84243.13;;;5.49;53.06
83496;BME280;73431;40.794;43.836;2024-03-08T08:25:52;84246.91;;;5.57;50.35
83496;BME280;73431;40.794;43.836;2024-03-08T08:28:20;84248.88;;;5.44;50.82
83496;BME280;73431;40.794;43.836;2024-03-08T08:30:48;84246.09;;;5.69;52.34
83496;BME280;73431;40.794;43.836;2024-03-08T08:33:18;84234.69;;;6.06;52.37
83496;BME280;73431;40.794;43.836;2024-03-08T08:35:46;84242.22;;;6.44;52.36
83496;BME280;73431;40.794;43.836;2024-03-08T08:38:15;84241.66;;;6.67;50.64
83496;BME280;73431;40.794;43.836;2024-03-08T08:40:43;84244.31;;;6.76;50.42
83496;BME280;73431;40.794;43.836;2024-03-08T08:43:13;84246.50;;;6.96;50.56
83496;BME280;73431;40.794;43.836;2024-03-08T08:45:41;84232.41;;;7.03;50.68
83496;BME280;73431;40.794;43.836;2024-03-08T08:48:10;84251.03;;;7.23;50.78
83496;BME280;73431;40.794;43.836;2024-03-08T08:50:38;84245.22;;;7.37;49.03
83496;BME280;73431;40.794;43.836;2024-03-08T08:53:06;84251.75;;;7.32;49.01
83496;BME280;73431;40.794;43.836;2024-03-08T08:55:35;84245.34;;;7.06;48.51
83496;BME280;73431;40.794;43.836;2024-03-08T08:58:03;84246.06;;;7.16;50.33
83496;BME280;73431;40.794;43.836;2024-03-08T09:00:31;84242.28;;;7.62;49.94
83496;BME280;73431;40.794;43.836;2024-03-08T09:02:59;84241.75;;;8.00;49.39
83496;BME280;73431;40.794;43.836;2024-03-08T09:05:27;84217.34;;;8.36;48.46
83496;BME280;73431;40.794;43.836;2024-03-08T09:07:55;84228.84;;;8.62;48.20
83496;BME280;73431;40.794;43.836;2024-03-08T09:10:23;84220.00;;;8.83;48.01
83496;BME280;73431;40.794;43.836;2024-03-08T09:12:56;84215.47;;;9.08;46.96
83496;BME280;73431;40.794;43.836;2024-03-08T09:15:24;84221.50;;;8.99;41.27
83496;BME280;73431;40.794;43.836;2024-03-08T09:17:54;84220.38;;;8.91;44.21
83496;BME280;73431;40.794;43.836;2024-03-08T09:20:22;84218.94;;;8.90;45.63
83496;BME280;73431;40.794;43.836;2024-03-08T09:22:50;84210.81;;;9.26;47.52
83496;BME280;73431;40.794;43.836;2024-03-08T09:25:17;84211.78;;;9.67;45.41
83496;BME280;73431;40.794;43.836;2024-03-08T09:27:45;84215.97;;;9.74;45.75
83496;BME280;73431;40.794;43.836;2024-03-08T09:30:13;84217.13;;;9.58;40.22
83496;BME280;73431;40.794;43.836;2024-03-08T09:32:42;84211.66;;;8.85;42.65
83496;BME280;73431;40.794;43.836;2024-03-08T09:35:11;84219.28;;;8.83;46.23
83496;BME280;73431;40.794;43.836;2024-03-08T09:37:38;84212.78;;;9.17;46.68
83496;BME280;73431;40.794;43.836;2024-03-08T09:40:06;84208.66;;;9.01;42.57
83496;BME280;73431;40.794;43.836;2024-03-08T09:42:37;84206.22;;;8.74;43.19
83496;BME280;73431;40.794;43.836;2024-03-08T09:45:10;84203.81;;;8.61;44.76
83496;BME280;73431;40.794;43.836;2024-03-08T09:47:43;84196.47;;;8.65;46.31
83496;BME280;73431;40.794;43.836;2024-03-08T09:50:11;84197.75;;;9.17;46.44
83496;BME280;73431;40.794;43.836;2024-03-08T09:52:43;84193.56;;;9.64;47.52
83496;BME280;73431;40.794;43.836;2024-03-08T09:55:15;84195.47;;;9.92;40.92
83496;BME280;73431;40.794;43.836;2024-03-08T09:57:46;84172.66;;;9.98;44.12
83496;BME280;73431;40.794;43.836;2024-03-08T10:00:35;84186.34;;;10.32;47.04
83496;BME280;73431;40.794;43.836;2024-03-08T10:03:03;84185.41;;;9.62;43.84
83496;BME280;73431;40.794;43.836;2024-03-08T10:05:33;84186.78;;;9.86;45.62
83496;BME280;73431;40.794;43.836;2024-03-08T10:08:01;84183.91;;;9.70;42.00
83496;BME280;73431;40.794;43.836;2024-03-08T10:10:28;84180.53;;;9.16;41.91
83496;BME280;73431;40.794;43.836;2024-03-08T10:12:56;84181.91;;;8.88;45.46
83496;BME280;73431;40.794;43.836;2024-03-08T10:15:27;84186.44;;;8.87;43.81
83496;BME280;73431;40.794;43.836;2024-03-08T10:17:56;84185.09;;;8.92;46.62
83496;BME280;73431;40.794;43.836;2024-03-08T10:20:25;84186.72;;;8.89;45.02
83496;BME280;73431;40.794;43.836;2024-03-08T10:22:55;84183.81;;;9.11;46.80
83496;BME280;73431;40.794;43.836;2024-03-08T10:25:37;84180.38;;;9.20;43.66
83496;BME280;73431;40.794;43.836;2024-03-08T10:28:05;84184.28;;;8.86;44.50
83496;BME280;73431;40.794;43.836;2024-03-08T10:30:33;84186.38;;;8.73;45.40
83496;BME280;73431;40.794;43.836;2024-03-08T10:33:01;84184.88;;;8.81;44.90
83496;BME280;73431;40.794;43.836;2024-03-08T10:35:32;84180.84;;;8.94;46.27
83496;BME280;73431;40.794;43.836;2024-03-08T10:38:01;84170.69;;;9.11;45.31
83496;BME280;73431;40.794;43.836;2024-03-08T10:40:35;84167.81;;;9.38;45.31
83496;BME280;73431;40.794;43.836;2024-03-08T10:43:16;84173.75;;;9.63;42.04
83496;BME280;73431;40.794;43.836;2024-03-08T10:45:47;84175.66;;;9.62;43.98
83496;BME280;73431;40.794;43.836;2024-03-08T10:48:31;84175.69;;;9.38;39.32
83496;BME280;73431;40.794;43.836;2024-03-08T10:51:06;84171.91;;;9.39;45.58
83496;BME280;73431;40.794;43.836;2024-03-08T10:53:36;84177.19;;;9.69;46.23
83496;BME280;73431;40.794;43.836;2024-03-08T10:56:04;84176.19;;;9.95;45.97
83496;BME280;73431;40.794;43.836;2024-03-08T10:58:33;84186.38;;;10.17;44.71
83496;BME280;73431;40.794;43.836;2024-03-08T11:01:03;84170.84;;;9.90;39.94
83496;BME280;73431;40.794;43.836;2024-03-08T11:06:08;84179.06;;;9.39;44.57
83496;BME280;73431;40.794;43.836;2024-03-08T11:08:42;84167.19;;;9.43;44.83
83496;BME280;73431;40.794;43.836;2024-03-08T11:11:29;84177.31;;;9.36;39.76
83496;BME280;73431;40.794;43.836;2024-03-08T11:14:02;84173.78;;;9.24;44.75
83496;BME280;73431;40.794;43.836;2024-03-08T11:19:07;84172.38;;;8.99;43.19
83496;BME280;73431;40.794;43.836;2024-03-08T11:21:58;84171.78;;;9.19;43.07
83496;BME280;73431;40.794;43.836;2024-03-08T11:24:26;84171.66;;;9.14;44.33
83496;BME280;73431;40.794;43.836;2024-03-08T11:26:57;84179.84;;;8.92;41.65
83496;BME280;73431;40.794;43.836;2024-03-08T11:32:16;84173.59;;;8.66;41.90
83496;BME280;73431;40.794;43.836;2024-03-08T11:34:49;84175.50;;;8.65;44.17
83496;BME280;73431;40.794;43.836;2024-03-08T11:37:19;84167.34;;;8.63;43.86
83496;BME280;73431;40.794;43.836;2024-03-08T11:39:53;84169.88;;;8.58;42.14
83496;BME280;73431;40.794;43.836;2024-03-08T11:42:27;84170.25;;;8.65;44.65
83496;BME280;73431;40.794;43.836;2024-03-08T11:44:54;84179.03;;;8.86;44.82
83496;BME280;73431;40.794;43.836;2024-03-08T11:47:22;84168.13;;;9.02;43.90
83496;BME280;73431;40.794;43.836;2024-03-08T11:49:50;84166.16;;;9.12;42.73
83496;BME280;73431;40.794;43.836;2024-03-08T11:52:18;84162.47;;;9.18;44.43
83496;BME280;73431;40.794;43.836;2024-03-08T11:54:53;84160.03;;;9.29;43.61
83496;BME280;73431;40.794;43.836;2024-03-08T11:57:23;84156.88;;;9.54;44.25
83496;BME280;73431;40.794;43.836;2024-03-08T11:59:51;84164.50;;;9.82;43.93
83496;BME280;73431;40.794;43.836;2024-03-08T12:02:24;84165.03;;;10.65;43.26
83496;BME280;73431;40.794;43.836;2024-03-08T12:04:58;84159.34;;;10.86;40.44
83496;BME280;73431;40.794;43.836;2024-03-08T12:07:30;84147.94;;;10.95;42.01
83496;BME280;73431;40.794;43.836;2024-03-08T12:10:21;84160.09;;;10.72;38.93
83496;BME280;73431;40.794;43.836;2024-03-08T12:12:52;84153.72;;;10.58;41.84
83496;BME280;73431;40.794;43.836;2024-03-08T12:15:22;84160.28;;;10.48;42.41
83496;BME280;73431;40.794;43.836;2024-03-08T12:17:54;84149.50;;;10.32;42.87
83496;BME280;73431;40.794;43.836;2024-03-08T12:20:27;84161.41;;;10.13;41.57
83496;BME280;73431;40.794;43.836;2024-03-08T12:22:57;84156.06;;;10.07;43.20
83496;BME280;73431;40.794;43.836;2024-03-08T12:25:29;84162.44;;;10.50;41.55
83496;BME280;73431;40.794;43.836;2024-03-08T12:28:09;84173.75;;;11.51;39.25
83496;BME280;73431;40.794;43.836;2024-03-08T12:30:48;84166.78;;;12.94;37.48
83496;BME280;73431;40.794;43.836;2024-03-08T12:33:18;84162.56;;;12.08;39.71
83496;BME280;73431;40.794;43.836;2024-03-08T12:35:53;84154.16;;;12.66;37.54
83496;BME280;73431;40.794;43.836;2024-03-08T12:38:24;84150.16;;;12.14;40.02
83496;BME280;73431;40.794;43.836;2024-03-08T12:40:55;84154.28;;;13.31;38.96
83496;BME280;73431;40.794;43.836;2024-03-08T12:43:24;84153.06;;;15.19;37.18
83496;BME280;73431;40.794;43.836;2024-03-08T12:45:52;84162.59;;;16.29;35.47
83496;BME280;73431;40.794;43.836;2024-03-08T12:48:22;84162.53;;;14.81;36.74
83496;BME280;73431;40.794;43.836;2024-03-08T12:50:49;84163.09;;;13.82;37.64
83496;BME280;73431;40.794;43.836;2024-03-08T12:53:18;84166.53;;;13.29;38.29
83496;BME280;73431;40.794;43.836;2024-03-08T12:55:46;84170.56;;;13.18;37.89
83496;BME280;73431;40.794;43.836;2024-03-08T12:58:14;84163.66;;;12.90;38.54
83496;BME280;73431;40.794;43.836;2024-03-08T13:00:44;84160.66;;;12.71;38.30
83496;BME280;73431;40.794;43.836;2024-03-08T13:03:11;84171.06;;;12.49;39.30
83496;BME280;73431;40.794;43.836;2024-03-08T13:05:39;84157.50;;;12.67;39.52
83496;BME280;73431;40.794;43.836;2024-03-08T13:08:07;84168.38;;;12.12;32.99
83496;BME280;73431;40.794;43.836;2024-03-08T13:10:40;84155.09;;;12.32;37.86
83496;BME280;73431;40.794;43.836;2024-03-08T13:13:11;84165.25;;;12.13;38.97
83496;BME280;73431;40.794;43.836;2024-03-08T13:15:43;84164.13;;;11.94;35.85
83496;BME280;73431;40.794;43.836;2024-03-08T13:18:13;84161.38;;;11.57;34.51